Saint Mary, Missouri
Current Conditions -  °F | °C
As of 6:35 AM on Monday 20 Oct 2014 (Local Time) from KSAR Reporting Station
Overcast Overcast  
Wind Chill: 53°   Ceiling: 8500
Heat Index: 53°   Visibility: 10mi
Dew Point: 47°   Wind: 5mph
Humidity: 81%   Direction: 210°SSW
Pressure: 30"   Gusts: NA
Location:  37.88°N, 89.95°W
Report Text: KSAR 201135Z AUTO 21004KT 10SM OVC085 11/08 A3000 RMK AO2 T01140082
Loading
Personal Weather Stations






























Interactive Weather Map
Tropical Storm Tracking
New forecast layout! Learn more

10-Day Weather Forecast

Advertisements
Track Severe Weather on mobile